createdAt,value
2022-12-23T00:00:59.463Z,99258.84
2022-12-23T00:03:28.221Z,99256.94
2022-12-23T00:05:56.299Z,99255.61
2022-12-23T00:08:26.140Z,99254.39
2022-12-23T00:10:54.987Z,99252.04
2022-12-23T00:13:41.541Z,99253.25
2022-12-23T00:16:12.463Z,99247.76
2022-12-23T00:18:40.890Z,99250.23
2022-12-23T00:21:11.767Z,99249.84
2022-12-23T00:23:42.374Z,99251.21
2022-12-23T00:26:28.791Z,99254.91
2022-12-23T00:28:58.615Z,99248.31
2022-12-23T00:31:26.667Z,99246.38
2022-12-23T00:33:54.592Z,99246.86
2022-12-23T00:36:24.887Z,99245.38
2022-12-23T00:39:12.102Z,99246.11
2022-12-23T00:41:58.988Z,99245.79
2022-12-23T00:44:26.817Z,99239.42
2022-12-23T00:46:54.592Z,99242.13
2022-12-23T00:49:41.578Z,99240.02
2022-12-23T00:52:15.463Z,99238.39
2022-12-23T00:54:43.348Z,99236.73
2022-12-23T00:57:11.594Z,99232.56
2022-12-23T00:59:39.462Z,99230.31
2022-12-23T01:02:26.159Z,99225.48
2022-12-23T01:05:12.904Z,99224.45
2022-12-23T01:07:42.500Z,99225.90
2022-12-23T01:10:10.672Z,99223.82
2022-12-23T01:12:38.508Z,99224.05
2022-12-23T01:15:07.177Z,99227.73
2022-12-23T01:17:34.936Z,99225.40
2022-12-23T01:20:03.083Z,99226.08
2022-12-23T01:22:30.872Z,99223.38
2022-12-23T01:24:58.566Z,99222.43
2022-12-23T01:27:26.390Z,99214.42
2022-12-23T01:29:54.150Z,99211.80
2022-12-23T01:32:21.882Z,99207.64
2022-12-23T01:34:49.682Z,99203.31
2022-12-23T01:37:17.898Z,99202.27
2022-12-23T01:39:45.826Z,99194.30
2022-12-23T01:42:37.555Z,99194.86
2022-12-23T01:45:08.347Z,99190.40
2022-12-23T01:47:55.842Z,99189.96
2022-12-23T01:50:28.772Z,99185.67
2022-12-23T01:53:18.157Z,99182.31
2022-12-23T01:56:00.400Z,99171.62
2022-12-23T01:58:30.696Z,99165.77
2022-12-23T02:01:17.703Z,99163.15
2022-12-23T02:03:46.856Z,99167.35
2022-12-23T02:06:39.347Z,99175.23
2022-12-23T02:09:18.496Z,99175.85
2022-12-23T02:12:28.230Z,99173.04
2022-12-23T02:15:52.181Z,99171.08
2022-12-23T02:18:41.571Z,99169.77
2022-12-23T02:21:16.591Z,99168.05
2022-12-23T02:24:03.110Z,99171.46
2022-12-23T02:26:39.713Z,99174.85
2022-12-23T02:29:29.471Z,99175.94
2022-12-23T02:32:19.196Z,99174.98
2022-12-23T02:35:35.458Z,99173.81
2022-12-23T02:38:22.421Z,99165.56
2022-12-23T02:40:59.032Z,99166.50
2022-12-23T02:43:57.071Z,99166.36
2022-12-23T02:46:37.013Z,99167.36
2022-12-23T02:49:15.546Z,99172.72
2022-12-23T02:51:50.519Z,99175.54
2022-12-23T02:54:25.032Z,99168.96
2022-12-23T02:56:54.181Z,99167.09
2022-12-23T02:59:25.649Z,99166.87
2022-12-23T03:01:54.264Z,99163.30
2022-12-23T03:04:22.192Z,99157.64
2022-12-23T03:06:52.192Z,99156.90
2022-12-23T03:09:58.762Z,99162.77
2022-12-23T03:13:08.039Z,99165.70
2022-12-23T03:15:38.640Z,99159.06
2022-12-23T03:18:29.747Z,99155.73
2022-12-23T03:21:05.381Z,99153.23
2022-12-23T03:23:37.871Z,99152.09
2022-12-23T03:26:11.684Z,99152.97
2022-12-23T03:28:59.171Z,99147.33
2022-12-23T03:35:53.063Z,99142.41
2022-12-23T03:38:22.030Z,99144.62
2022-12-23T03:40:53.817Z,99143.14
2022-12-23T03:43:35.321Z,99136.67
2022-12-23T03:46:12.993Z,99130.57
2022-12-23T03:48:45.657Z,99130.50
2022-12-23T03:51:26.319Z,99133.38
2022-12-23T03:54:01.256Z,99128.16
2022-12-23T03:56:32.324Z,99126.23
2022-12-23T03:59:03.658Z,99127.98
2022-12-23T04:01:49.939Z,99126.42
2022-12-23T04:04:32.969Z,99128.00
2022-12-23T04:07:09.393Z,99126.77
2022-12-23T04:09:37.806Z,99125.20
2022-12-23T04:12:05.896Z,99120.48
2022-12-23T04:14:34.500Z,99120.21
2022-12-23T04:17:02.792Z,99120.66
2022-12-23T04:19:30.524Z,99122.18
2022-12-23T04:21:58.295Z,99122.54
2022-12-23T04:24:26.040Z,99114.94
2022-12-23T04:26:53.730Z,99111.36
2022-12-23T04:29:21.566Z,99107.72
2022-12-23T04:31:49.354Z,99109.35
2022-12-23T04:34:17.170Z,99104.16
2022-12-23T04:36:45.016Z,99104.48
2022-12-23T04:39:12.753Z,99106.98
2022-12-23T04:41:40.518Z,99104.73
2022-12-23T04:44:08.996Z,99101.33
2022-12-23T04:46:37.099Z,99099.94
2022-12-23T04:49:05.345Z,99097.71
2022-12-23T04:51:33.083Z,99098.34
2022-12-23T04:54:00.835Z,99097.03
2022-12-23T04:56:28.616Z,99088.42
2022-12-23T04:58:56.380Z,99089.12
2022-12-23T05:01:24.336Z,99089.02
2022-12-23T05:03:52.212Z,99085.25
2022-12-23T05:06:19.962Z,99087.80
2022-12-23T05:08:47.687Z,99078.44
2022-12-23T05:11:15.400Z,99076.94
2022-12-23T05:13:43.362Z,99075.53
2022-12-23T05:16:11.301Z,99077.11
2022-12-23T05:18:39.085Z,99079.69
2022-12-23T05:21:06.882Z,99087.75
2022-12-23T05:23:34.838Z,99079.16
2022-12-23T05:26:02.552Z,99080.30
2022-12-23T05:28:30.566Z,99080.30
2022-12-23T05:31:06.331Z,99079.27
2022-12-23T05:33:34.875Z,99075.56
2022-12-23T05:36:03.150Z,99076.51
2022-12-23T05:38:30.996Z,99075.27
2022-12-23T05:40:59.055Z,99074.41
2022-12-23T05:43:26.796Z,99078.11
2022-12-23T05:45:55.013Z,99075.64
2022-12-23T05:48:22.934Z,99077.51
2022-12-23T05:50:51.691Z,99078.42
2022-12-23T05:53:20.567Z,99075.35
2022-12-23T05:55:48.516Z,99083.16
2022-12-23T05:58:16.959Z,99080.92
2022-12-23T06:00:44.758Z,99086.45
2022-12-23T06:03:12.844Z,99084.17
2022-12-23T06:05:43.409Z,99085.77
2022-12-23T06:08:11.296Z,99087.10
2022-12-23T06:10:39.046Z,99088.20
2022-12-23T06:13:06.805Z,99087.83
2022-12-23T06:15:34.658Z,99092.23
2022-12-23T06:18:02.449Z,99092.58
2022-12-23T06:20:30.262Z,99090.09
2022-12-23T06:22:58.058Z,99081.14
2022-12-23T06:25:25.793Z,99079.47
2022-12-23T06:27:53.543Z,99077.59
2022-12-23T06:30:21.236Z,99076.40
2022-12-23T06:32:48.976Z,99079.98
2022-12-23T06:35:16.756Z,99082.29
2022-12-23T06:37:44.798Z,99087.17
2022-12-23T06:40:13.064Z,99082.99
2022-12-23T06:42:40.857Z,99083.97
2022-12-23T06:45:09.703Z,99083.16
2022-12-23T06:47:37.592Z,99086.33
2022-12-23T06:50:06.281Z,99083.86
2022-12-23T06:52:34.017Z,99082.59
2022-12-23T06:55:01.802Z,99083.58
2022-12-23T06:57:29.505Z,99084.92
2022-12-23T06:59:57.317Z,99082.42
2022-12-23T07:02:25.169Z,99080.05
2022-12-23T07:04:53.062Z,99080.05
2022-12-23T07:07:20.868Z,99076.63
2022-12-23T07:09:48.556Z,99077.09
2022-12-23T07:12:16.617Z,99081.48
2022-12-23T07:14:44.350Z,99083.89
2022-12-23T07:17:12.173Z,99085.49
2022-12-23T07:19:41.714Z,99087.25
2022-12-23T07:22:10.361Z,99091.13
2022-12-23T07:24:38.386Z,99091.30
2022-12-23T07:27:06.121Z,99085.33
2022-12-23T07:29:33.903Z,99084.42
2022-12-23T07:32:02.550Z,99081.42
2022-12-23T07:34:30.556Z,99080.13
2022-12-23T07:36:58.328Z,99084.98
2022-12-23T07:39:26.138Z,99084.73
2022-12-23T07:42:09.323Z,99085.34
2022-12-23T07:44:41.643Z,99087.78
2022-12-23T07:47:10.037Z,99089.47
2022-12-23T07:49:37.781Z,99083.70
2022-12-23T07:52:05.565Z,99084.32
2022-12-23T07:54:33.407Z,99085.95
2022-12-23T07:57:01.309Z,99086.71
2022-12-23T07:59:29.228Z,99082.15
2022-12-23T08:01:57.109Z,99080.65
2022-12-23T08:04:25.069Z,99079.77
2022-12-23T08:06:53.028Z,99082.45
2022-12-23T08:09:20.794Z,99077.10
2022-12-23T08:11:48.553Z,99081.63
2022-12-23T08:14:16.293Z,99081.88
2022-12-23T08:16:44.592Z,99072.64
2022-12-23T08:19:12.389Z,99073.85
2022-12-23T08:21:40.077Z,99072.00
2022-12-23T08:24:08.010Z,99073.68
2022-12-23T08:26:35.740Z,99069.71
2022-12-23T08:29:03.704Z,99069.67
2022-12-23T08:31:34.406Z,99073.03
2022-12-23T08:34:02.240Z,99072.83
2022-12-23T08:36:32.368Z,99075.14
2022-12-23T08:39:02.908Z,99076.07
2022-12-23T08:41:33.505Z,99072.77
2022-12-23T08:44:01.293Z,99075.94
2022-12-23T08:46:29.379Z,99078.22
2022-12-23T08:48:57.556Z,99078.65
2022-12-23T08:51:26.223Z,99081.35
2022-12-23T08:54:00.891Z,99080.99
2022-12-23T08:56:33.053Z,99078.45
2022-12-23T08:59:01.347Z,99079.13
2022-12-23T09:01:31.577Z,99081.35
2022-12-23T09:04:03.619Z,99071.38
2022-12-23T09:06:49.651Z,99075.70
2022-12-23T09:09:17.538Z,99070.52
2022-12-23T09:11:45.292Z,99071.61
2022-12-23T09:14:14.139Z,99073.69
2022-12-23T09:16:44.439Z,99073.71
2022-12-23T09:19:12.226Z,99072.85
2022-12-23T09:21:39.961Z,99076.92
2022-12-23T09:24:07.908Z,99075.91
2022-12-23T09:26:35.694Z,99074.85
2022-12-23T09:29:03.532Z,99073.63
2022-12-23T09:31:36.536Z,99067.46
2022-12-23T09:34:06.083Z,99073.67
2022-12-23T09:36:34.095Z,99074.58
2022-12-23T09:39:02.116Z,99069.30
2022-12-23T09:41:52.428Z,99071.77
2022-12-23T09:44:29.378Z,99067.50
2022-12-23T09:47:02.642Z,99063.39
2022-12-23T09:49:30.996Z,99063.90
2022-12-23T09:52:02.267Z,99065.39
2022-12-23T09:54:36.377Z,99061.48
2022-12-23T09:57:16.732Z,99064.38
2022-12-23T09:59:56.677Z,99067.48
2022-12-23T10:02:32.299Z,99071.42
2022-12-23T10:05:13.271Z,99065.73
2022-12-23T10:07:47.771Z,99064.11
2022-12-23T10:10:29.164Z,99065.01
2022-12-23T10:12:58.674Z,99065.46
2022-12-23T10:15:35.247Z,99066.45
2022-12-23T10:18:10.638Z,99068.89
2022-12-23T10:20:46.378Z,99070.86
2022-12-23T10:23:18.272Z,99067.97
2022-12-23T10:25:52.681Z,99072.11
2022-12-23T10:28:20.509Z,99070.45
2022-12-23T10:34:22.740Z,99070.70
2022-12-23T10:36:59.811Z,99072.42
2022-12-23T10:39:44.290Z,99072.03
2022-12-23T10:42:11.967Z,99073.83
2022-12-23T10:44:54.146Z,99074.05
2022-12-23T10:47:49.148Z,99078.78
2022-12-23T10:50:40.153Z,99077.81
2022-12-23T10:53:11.264Z,99083.32
2022-12-23T10:55:39.318Z,99082.86
2022-12-23T10:58:13.663Z,99083.25
2022-12-23T11:00:45.717Z,99084.58
2022-12-23T11:03:19.557Z,99078.60
2022-12-23T11:05:50.453Z,99083.54
2022-12-23T11:08:19.935Z,99084.23
2022-12-23T11:10:48.319Z,99084.20
2022-12-23T11:13:37.060Z,99083.64
2022-12-23T11:20:44.521Z,99086.95
2022-12-23T11:23:30.761Z,99088.15
2022-12-23T11:26:07.119Z,99086.95
2022-12-23T11:28:48.712Z,99088.51
2022-12-23T11:31:26.017Z,99088.34
2022-12-23T11:34:05.688Z,99083.56
2022-12-23T11:36:34.285Z,99082.81
2022-12-23T11:39:15.637Z,99082.80
2022-12-23T11:41:48.423Z,99077.02
2022-12-23T11:44:44.277Z,99076.63
2022-12-23T11:47:35.094Z,99078.04
2022-12-23T11:50:27.784Z,99067.27
2022-12-23T11:53:01.759Z,99070.20
2022-12-23T11:55:32.890Z,99063.34
2022-12-23T11:58:01.717Z,99065.93
2022-12-23T12:00:40.362Z,99064.42
2022-12-23T12:03:16.594Z,99062.34
2022-12-23T12:05:54.417Z,99063.83
2022-12-23T12:08:25.538Z,99060.35
2022-12-23T12:10:53.944Z,99062.30
2022-12-23T12:13:29.982Z,99065.37
2022-12-23T12:16:23.910Z,99068.08
2022-12-23T12:18:55.815Z,99063.87
2022-12-23T12:21:28.899Z,99063.98
2022-12-23T12:24:18.228Z,99064.90
2022-12-23T12:27:01.492Z,99067.66
2022-12-23T12:29:31.475Z,99072.20
2022-12-23T12:32:00.375Z,99082.45
2022-12-23T12:34:49.583Z,99086.77
2022-12-23T12:37:51.570Z,99094.09
2022-12-23T12:40:32.853Z,99096.82
2022-12-23T12:43:25.002Z,99098.80
2022-12-23T12:45:59.786Z,99105.08
2022-12-23T12:48:49.621Z,99104.94
2022-12-23T12:51:50.399Z,99106.49
2022-12-23T12:54:25.967Z,99114.73
2022-12-23T12:56:56.193Z,99112.70
2022-12-23T12:59:38.144Z,99116.05
2022-12-23T13:02:21.879Z,99118.07
2022-12-23T13:05:09.404Z,99117.68
2022-12-23T13:07:50.945Z,99121.84
2022-12-23T13:10:46.857Z,99132.00
2022-12-23T13:13:49.927Z,99133.81
2022-12-23T13:17:05.182Z,99140.64
2022-12-23T13:20:10.723Z,99146.31
2022-12-23T13:22:39.328Z,99151.06
2022-12-23T13:25:17.896Z,99150.77
2022-12-23T13:28:26.806Z,99150.42
2022-12-23T13:31:10.140Z,99153.38
2022-12-23T13:33:46.769Z,99153.94
2022-12-23T13:36:31.281Z,99156.80
2022-12-23T13:39:12.751Z,99161.09
2022-12-23T13:41:44.088Z,99155.10
2022-12-23T13:44:13.639Z,99153.88
2022-12-23T13:47:15.891Z,99154.47
2022-12-23T13:49:56.266Z,99157.07
2022-12-23T13:52:56.497Z,99157.25
2022-12-23T13:55:42.866Z,99157.02
2022-12-23T13:58:16.682Z,99154.50
2022-12-23T14:00:44.880Z,99145.01
2022-12-23T14:03:23.057Z,99144.74
2022-12-23T14:05:52.666Z,99144.86
2022-12-23T14:08:20.480Z,99144.23
2022-12-23T14:10:54.995Z,99143.56
2022-12-23T14:13:24.951Z,99146.84
2022-12-23T14:16:01.962Z,99142.58
2022-12-23T14:18:36.557Z,99148.33
2022-12-23T14:21:04.624Z,99143.55
2022-12-23T14:24:08.978Z,99148.80
2022-12-23T14:26:44.421Z,99146.04
2022-12-23T14:29:24.829Z,99139.77
2022-12-23T14:31:57.197Z,99144.40
2022-12-23T14:34:32.933Z,99142.67
2022-12-23T14:37:25.173Z,99144.41
2022-12-23T14:39:53.633Z,99144.84
2022-12-23T14:42:40.334Z,99149.23
2022-12-23T14:45:33.263Z,99152.17
2022-12-23T14:48:02.311Z,99156.21
2022-12-23T14:50:33.361Z,99154.95
2022-12-23T14:53:20.596Z,99153.71
2022-12-23T14:55:50.239Z,99153.96
2022-12-23T14:58:17.942Z,99153.98
2022-12-23T15:01:09.929Z,99156.33
2022-12-23T15:03:44.863Z,99149.66
2022-12-23T15:06:35.758Z,99151.84
2022-12-23T15:09:05.445Z,99159.46
2022-12-23T15:11:35.279Z,99156.25
2022-12-23T15:14:09.451Z,99163.77
2022-12-23T15:16:39.785Z,99152.23
2022-12-23T15:19:27.932Z,99156.02
2022-12-23T15:22:19.900Z,99156.73
2022-12-23T15:24:51.665Z,99154.39
2022-12-23T15:27:29.573Z,99152.55
2022-12-23T15:29:58.389Z,99153.19
2022-12-23T15:32:26.846Z,99158.42
2022-12-23T15:35:06.503Z,99167.45
2022-12-23T15:37:34.911Z,99163.79
2022-12-23T15:40:12.077Z,99163.47
2022-12-23T15:42:48.812Z,99157.71
2022-12-23T15:45:40.716Z,99159.95
2022-12-23T15:48:27.623Z,99156.70
2022-12-23T15:51:08.240Z,99152.88
2022-12-23T15:53:38.361Z,99158.70
2022-12-23T15:56:17.613Z,99159.58
2022-12-23T15:58:45.772Z,99161.88
2022-12-23T16:01:17.881Z,99166.11
2022-12-23T16:03:52.868Z,99166.27
2022-12-23T16:06:29.829Z,99171.90
2022-12-23T16:09:04.709Z,99170.81
2022-12-23T16:11:47.971Z,99171.61
2022-12-23T16:14:31.161Z,99170.79
2022-12-23T16:17:01.228Z,99167.91
2022-12-23T16:19:52.803Z,99163.09
2022-12-23T16:22:20.597Z,99164.08
2022-12-23T16:25:08.053Z,99169.11
2022-12-23T16:27:50.636Z,99179.71
2022-12-23T16:30:26.611Z,99175.25
2022-12-23T16:32:56.636Z,99177.52
2022-12-23T16:35:32.296Z,99173.55
2022-12-23T16:38:16.752Z,99173.65
2022-12-23T16:40:46.694Z,99180.95
2022-12-23T16:43:15.035Z,99176.09
2022-12-23T16:45:43.850Z,99175.98
2022-12-23T16:48:25.393Z,99182.20
2022-12-23T16:50:53.829Z,99185.73
2022-12-23T16:53:21.587Z,99179.52
2022-12-23T16:55:56.636Z,99182.19
2022-12-23T16:58:28.671Z,99181.95
2022-12-23T17:00:56.536Z,99179.63
2022-12-23T17:03:24.372Z,99175.65
2022-12-23T17:05:52.062Z,99181.45
2022-12-23T17:08:20.678Z,99181.70
2022-12-23T17:10:48.498Z,99182.14
2022-12-23T17:13:18.251Z,99180.42
2022-12-23T17:15:46.010Z,99177.49
2022-12-23T17:18:16.578Z,99178.91
2022-12-23T17:20:45.638Z,99182.19
2022-12-23T17:23:32.554Z,99183.38
2022-12-23T17:26:00.690Z,99183.05
2022-12-23T17:28:31.927Z,99180.16
2022-12-23T17:31:00.012Z,99180.02
2022-12-23T17:33:30.290Z,99176.21
2022-12-23T17:35:58.486Z,99166.48
2022-12-23T17:38:29.028Z,99162.35
2022-12-23T17:40:58.584Z,99155.19
2022-12-23T17:43:26.753Z,99153.92
2022-12-23T17:45:54.637Z,99161.44
2022-12-23T17:48:26.656Z,99163.09
2022-12-23T17:50:59.087Z,99172.01
2022-12-23T17:53:26.953Z,99172.52
2022-12-23T17:55:56.903Z,99170.84
2022-12-23T17:58:27.836Z,99169.57
2022-12-23T18:00:56.301Z,99175.20
2022-12-23T18:03:25.054Z,99169.92
2022-12-23T18:05:59.365Z,99168.46
2022-12-23T18:08:30.027Z,99168.91
2022-12-23T18:10:58.502Z,99168.86
2022-12-23T18:13:26.452Z,99163.09
2022-12-23T18:15:54.187Z,99167.42
2022-12-23T18:18:32.151Z,99176.95
2022-12-23T18:21:06.615Z,99182.11
2022-12-23T18:23:37.364Z,99181.15
2022-12-23T18:26:07.097Z,99175.14
2022-12-23T18:28:35.531Z,99170.53
2022-12-23T18:31:03.462Z,99164.60
2022-12-23T18:33:31.721Z,99164.70
2022-12-23T18:35:59.500Z,99163.04
2022-12-23T18:38:27.299Z,99159.65
2022-12-23T18:40:56.606Z,99152.11
2022-12-23T18:43:25.378Z,99153.31
2022-12-23T18:45:54.102Z,99155.27
2022-12-23T18:48:22.177Z,99153.67
2022-12-23T18:50:50.000Z,99147.95
2022-12-23T18:53:25.308Z,99141.31
2022-12-23T18:55:54.594Z,99137.28
2022-12-23T18:58:23.310Z,99131.38
2022-12-23T19:00:52.860Z,99127.59
2022-12-23T19:03:24.814Z,99127.34
2022-12-23T19:05:53.148Z,99128.60
2022-12-23T19:08:26.740Z,99117.65
2022-12-23T19:10:55.850Z,99119.82
2022-12-23T19:13:23.852Z,99117.72
2022-12-23T19:15:52.427Z,99113.33
2022-12-23T19:18:21.806Z,99105.22
2022-12-23T19:20:49.878Z,99102.69
2022-12-23T19:23:18.241Z,99096.02
2022-12-23T19:25:54.388Z,99093.39
2022-12-23T19:28:22.809Z,99095.98
2022-12-23T19:30:50.897Z,99092.48
2022-12-23T19:33:18.924Z,99093.81
2022-12-23T19:35:46.764Z,99097.08
2022-12-23T19:38:14.550Z,99098.50
2022-12-23T19:40:42.549Z,99104.43
2022-12-23T19:43:10.281Z,99094.81
2022-12-23T19:45:38.045Z,99092.38
2022-12-23T19:48:05.946Z,99092.20
2022-12-23T19:50:33.858Z,99096.13
2022-12-23T19:53:01.754Z,99099.27
2022-12-23T19:55:29.622Z,99096.02
2022-12-23T19:57:57.607Z,99090.80
2022-12-23T20:00:25.735Z,99085.78
2022-12-23T20:02:58.725Z,99089.70
2022-12-23T20:05:27.146Z,99089.05
2022-12-23T20:07:55.001Z,99084.17
2022-12-23T20:10:22.754Z,99079.91
2022-12-23T20:12:50.648Z,99086.80
2022-12-23T20:15:18.578Z,99089.95
2022-12-23T20:17:46.325Z,99086.04
2022-12-23T20:20:14.200Z,99083.92
2022-12-23T20:22:42.011Z,99076.63
2022-12-23T20:25:09.970Z,99081.92
2022-12-23T20:27:38.912Z,99081.73
2022-12-23T20:30:07.322Z,99076.02
2022-12-23T20:32:35.127Z,99067.98
2022-12-23T20:35:02.951Z,99068.34
2022-12-23T20:37:30.922Z,99070.16
2022-12-23T20:39:58.692Z,99069.60
2022-12-23T20:42:28.032Z,99075.86
2022-12-23T20:44:55.785Z,99084.19
2022-12-23T20:47:23.512Z,99087.31
2022-12-23T20:49:51.456Z,99082.91
2022-12-23T20:52:19.279Z,99086.34
2022-12-23T20:54:47.014Z,99083.77
2022-12-23T20:57:14.897Z,99078.23
2022-12-23T20:59:42.863Z,99077.55
2022-12-23T21:02:13.224Z,99082.47
2022-12-23T21:04:41.383Z,99073.94
2022-12-23T21:07:09.393Z,99068.21
2022-12-23T21:09:37.217Z,99077.91
2022-12-23T21:12:05.829Z,99087.41
2022-12-23T21:14:33.723Z,99076.06
2022-12-23T21:17:01.478Z,99066.77
2022-12-23T21:19:30.413Z,99068.16
2022-12-23T21:21:58.228Z,99066.57
2022-12-23T21:24:26.117Z,99067.66
2022-12-23T21:26:56.901Z,99065.35
2022-12-23T21:29:25.723Z,99063.71
2022-12-23T21:31:55.117Z,99061.85
2022-12-23T21:34:23.353Z,99056.78
2022-12-23T21:36:51.174Z,99047.45
2022-12-23T21:39:19.939Z,99041.73
2022-12-23T21:41:50.923Z,99031.80
2022-12-23T21:44:18.739Z,99033.30
2022-12-23T21:46:46.494Z,99029.34
2022-12-23T21:49:14.495Z,99028.05
2022-12-23T21:51:42.396Z,99024.91
2022-12-23T21:54:11.379Z,99022.92
2022-12-23T21:56:39.840Z,99020.88
2022-12-23T21:59:12.834Z,99020.67
2022-12-23T22:01:41.927Z,99017.02
2022-12-23T22:04:10.200Z,99010.86
2022-12-23T22:06:41.069Z,99005.84
2022-12-23T22:09:11.243Z,99002.68
2022-12-23T22:11:39.255Z,99004.48
2022-12-23T22:14:08.435Z,99002.18
2022-12-23T22:16:36.555Z,98995.46
2022-12-23T22:19:06.370Z,98989.34
2022-12-23T22:21:34.858Z,98990.05
2022-12-23T22:24:03.346Z,98996.13
2022-12-23T22:26:32.299Z,98995.15
2022-12-23T22:29:02.376Z,98993.33
2022-12-23T22:31:43.005Z,98991.80
2022-12-23T22:34:19.435Z,98990.73
2022-12-23T22:36:47.482Z,98988.46
2022-12-23T22:39:20.634Z,98986.63
2022-12-23T22:41:50.624Z,98981.17
2022-12-23T22:44:19.423Z,98979.77
2022-12-23T22:46:47.280Z,98983.95
2022-12-23T22:49:15.748Z,98980.63
2022-12-23T22:51:43.841Z,98969.88
2022-12-23T22:54:11.922Z,98965.21
2022-12-23T22:56:39.690Z,98959.38
2022-12-23T22:59:07.531Z,98955.46
2022-12-23T23:01:36.345Z,98955.21
2022-12-23T23:04:04.980Z,98951.84
2022-12-23T23:06:34.988Z,98945.47
2022-12-23T23:09:03.082Z,98946.63
2022-12-23T23:11:30.988Z,98941.61
2022-12-23T23:13:58.765Z,98931.80
2022-12-23T23:16:27.027Z,98926.89
2022-12-23T23:18:54.846Z,98934.33
2022-12-23T23:21:22.642Z,98936.27
2022-12-23T23:23:50.721Z,98946.23
2022-12-23T23:26:19.513Z,98952.33
2022-12-23T23:28:48.060Z,98956.05
2022-12-23T23:34:03.919Z,98959.28
2022-12-23T23:36:31.837Z,98956.30
2022-12-23T23:38:59.580Z,98954.28
2022-12-23T23:41:27.458Z,98945.15
2022-12-23T23:43:55.348Z,98941.77
2022-12-23T23:46:23.317Z,98943.80
2022-12-23T23:48:51.143Z,98943.76
2022-12-23T23:51:19.251Z,98945.45
2022-12-23T23:53:47.318Z,98938.80
2022-12-23T23:56:21.935Z,98935.36
2022-12-23T23:58:53.002Z,98926.84
